sensor_id;sensor_type;location;lat;lon;timestamp;P1;durP1;ratioP1;P2;durP2;ratioP2
64197;SDS011;50512;53.666;9.700;2023-09-30T00:02:25;27.88;;;4.68;;
64197;SDS011;50512;53.666;9.700;2023-09-30T00:04:52;29.02;;;4.95;;
64197;SDS011;50512;53.666;9.700;2023-09-30T00:07:19;29.75;;;5.05;;
64197;SDS011;50512;53.666;9.700;2023-09-30T00:09:46;24.50;;;5.97;;
64197;SDS011;50512;53.666;9.700;2023-09-30T00:12:13;13.48;;;5.35;;
64197;SDS011;50512;53.666;9.700;2023-09-30T00:14:39;26.70;;;6.05;;
64197;SDS011;50512;53.666;9.700;2023-09-30T00:17:06;21.95;;;5.18;;
64197;SDS011;50512;53.666;9.700;2023-09-30T00:19:32;20.17;;;5.15;;
64197;SDS011;50512;53.666;9.700;2023-09-30T00:21:59;21.83;;;4.68;;
64197;SDS011;50512;53.666;9.700;2023-09-30T00:24:26;29.30;;;5.45;;
64197;SDS011;50512;53.666;9.700;2023-09-30T00:26:54;22.63;;;5.07;;
64197;SDS011;50512;53.666;9.700;2023-09-30T00:29:21;20.45;;;3.65;;
64197;SDS011;50512;53.666;9.700;2023-09-30T00:31:47;17.55;;;3.72;;
64197;SDS011;50512;53.666;9.700;2023-09-30T00:34:14;18.90;;;4.85;;
64197;SDS011;50512;53.666;9.700;2023-09-30T00:36:40;23.92;;;4.30;;
64197;SDS011;50512;53.666;9.700;2023-09-30T00:39:07;22.52;;;3.63;;
64197;SDS011;50512;53.666;9.700;2023-09-30T00:41:34;21.95;;;4.10;;
64197;SDS011;50512;53.666;9.700;2023-09-30T00:44:02;26.08;;;4.35;;
64197;SDS011;50512;53.666;9.700;2023-09-30T00:46:29;24.58;;;4.45;;
64197;SDS011;50512;53.666;9.700;2023-09-30T00:48:58;17.70;;;4.28;;
64197;SDS011;50512;53.666;9.700;2023-09-30T00:51:26;15.80;;;3.58;;
64197;SDS011;50512;53.666;9.700;2023-09-30T00:53:53;19.80;;;3.83;;
64197;SDS011;50512;53.666;9.700;2023-09-30T00:56:23;17.63;;;4.03;;
64197;SDS011;50512;53.666;9.700;2023-09-30T00:58:51;19.95;;;3.70;;
64197;SDS011;50512;53.666;9.700;2023-09-30T01:01:20;22.52;;;3.80;;
64197;SDS011;50512;53.666;9.700;2023-09-30T01:03:47;22.00;;;4.78;;
64197;SDS011;50512;53.666;9.700;2023-09-30T01:06:14;21.77;;;4.20;;
64197;SDS011;50512;53.666;9.700;2023-09-30T01:08:40;19.05;;;3.60;;
64197;SDS011;50512;53.666;9.700;2023-09-30T01:11:07;13.25;;;3.17;;
64197;SDS011;50512;53.666;9.700;2023-09-30T01:13:34;13.43;;;3.60;;
64197;SDS011;50512;53.666;9.700;2023-09-30T01:16:02;16.40;;;3.88;;
64197;SDS011;50512;53.666;9.700;2023-09-30T01:18:31;18.40;;;3.78;;
64197;SDS011;50512;53.666;9.700;2023-09-30T01:20:59;21.25;;;4.32;;
64197;SDS011;50512;53.666;9.700;2023-09-30T01:23:29;22.85;;;4.35;;
64197;SDS011;50512;53.666;9.700;2023-09-30T01:25:56;19.65;;;4.10;;
64197;SDS011;50512;53.666;9.700;2023-09-30T01:28:24;20.75;;;4.18;;
64197;SDS011;50512;53.666;9.700;2023-09-30T01:30:51;24.10;;;4.03;;
64197;SDS011;50512;53.666;9.700;2023-09-30T01:33:18;23.88;;;4.82;;
64197;SDS011;50512;53.666;9.700;2023-09-30T01:35:44;17.27;;;5.25;;
64197;SDS011;50512;53.666;9.700;2023-09-30T01:38:11;21.35;;;5.57;;
64197;SDS011;50512;53.666;9.700;2023-09-30T01:40:39;21.48;;;4.28;;
64197;SDS011;50512;53.666;9.700;2023-09-30T01:43:05;17.10;;;4.20;;
64197;SDS011;50512;53.666;9.700;2023-09-30T01:45:32;18.00;;;3.78;;
64197;SDS011;50512;53.666;9.700;2023-09-30T01:47:58;25.45;;;4.82;;
64197;SDS011;50512;53.666;9.700;2023-09-30T01:50:25;21.38;;;5.22;;
64197;SDS011;50512;53.666;9.700;2023-09-30T01:52:51;21.00;;;3.65;;
64197;SDS011;50512;53.666;9.700;2023-09-30T01:55:17;17.98;;;4.53;;
64197;SDS011;50512;53.666;9.700;2023-09-30T01:57:45;13.10;;;3.40;;
64197;SDS011;50512;53.666;9.700;2023-09-30T02:00:12;26.55;;;5.85;;
64197;SDS011;50512;53.666;9.700;2023-09-30T02:02:38;20.63;;;3.70;;
64197;SDS011;50512;53.666;9.700;2023-09-30T02:05:05;13.68;;;4.10;;
64197;SDS011;50512;53.666;9.700;2023-09-30T02:07:33;20.40;;;4.85;;
64197;SDS011;50512;53.666;9.700;2023-09-30T02:09:59;22.88;;;5.00;;
64197;SDS011;50512;53.666;9.700;2023-09-30T02:12:26;21.23;;;5.07;;
64197;SDS011;50512;53.666;9.700;2023-09-30T02:14:54;29.23;;;5.05;;
64197;SDS011;50512;53.666;9.700;2023-09-30T02:17:21;21.58;;;4.07;;
64197;SDS011;50512;53.666;9.700;2023-09-30T02:19:47;18.95;;;4.03;;
64197;SDS011;50512;53.666;9.700;2023-09-30T02:22:15;18.17;;;4.55;;
64197;SDS011;50512;53.666;9.700;2023-09-30T02:24:41;23.35;;;4.70;;
64197;SDS011;50512;53.666;9.700;2023-09-30T02:27:08;22.00;;;4.20;;
64197;SDS011;50512;53.666;9.700;2023-09-30T02:29:34;26.13;;;4.75;;
64197;SDS011;50512;53.666;9.700;2023-09-30T02:32:02;20.85;;;4.55;;
64197;SDS011;50512;53.666;9.700;2023-09-30T02:34:30;27.13;;;6.22;;
64197;SDS011;50512;53.666;9.700;2023-09-30T02:36:56;28.50;;;5.80;;
64197;SDS011;50512;53.666;9.700;2023-09-30T02:39:25;20.67;;;3.75;;
64197;SDS011;50512;53.666;9.700;2023-09-30T02:41:52;24.35;;;5.20;;
64197;SDS011;50512;53.666;9.700;2023-09-30T02:44:18;14.95;;;4.03;;
64197;SDS011;50512;53.666;9.700;2023-09-30T02:46:45;15.70;;;5.00;;
64197;SDS011;50512;53.666;9.700;2023-09-30T02:49:12;13.38;;;4.15;;
64197;SDS011;50512;53.666;9.700;2023-09-30T02:51:39;20.48;;;4.80;;
64197;SDS011;50512;53.666;9.700;2023-09-30T02:54:06;26.45;;;4.88;;
64197;SDS011;50512;53.666;9.700;2023-09-30T02:56:32;18.83;;;5.20;;
64197;SDS011;50512;53.666;9.700;2023-09-30T02:58:59;23.35;;;5.13;;
64197;SDS011;50512;53.666;9.700;2023-09-30T03:01:26;17.90;;;4.15;;
64197;SDS011;50512;53.666;9.700;2023-09-30T03:03:53;23.45;;;4.88;;
64197;SDS011;50512;53.666;9.700;2023-09-30T03:06:21;21.98;;;4.75;;
64197;SDS011;50512;53.666;9.700;2023-09-30T03:08:47;20.13;;;5.05;;
64197;SDS011;50512;53.666;9.700;2023-09-30T03:11:14;21.92;;;4.43;;
64197;SDS011;50512;53.666;9.700;2023-09-30T03:13:40;25.13;;;5.32;;
64197;SDS011;50512;53.666;9.700;2023-09-30T03:16:07;20.88;;;6.80;;
64197;SDS011;50512;53.666;9.700;2023-09-30T03:18:34;30.98;;;6.45;;
64197;SDS011;50512;53.666;9.700;2023-09-30T03:21:01;32.67;;;6.63;;
64197;SDS011;50512;53.666;9.700;2023-09-30T03:23:34;23.60;;;7.00;;
64197;SDS011;50512;53.666;9.700;2023-09-30T03:26:03;26.08;;;6.78;;
64197;SDS011;50512;53.666;9.700;2023-09-30T03:28:33;24.02;;;6.38;;
64197;SDS011;50512;53.666;9.700;2023-09-30T03:30:59;27.23;;;7.38;;
64197;SDS011;50512;53.666;9.700;2023-09-30T03:33:26;24.60;;;6.05;;
64197;SDS011;50512;53.666;9.700;2023-09-30T03:35:52;17.52;;;5.68;;
64197;SDS011;50512;53.666;9.700;2023-09-30T03:38:19;24.42;;;5.93;;
64197;SDS011;50512;53.666;9.700;2023-09-30T03:40:48;29.65;;;6.70;;
64197;SDS011;50512;53.666;9.700;2023-09-30T03:43:15;19.90;;;5.53;;
64197;SDS011;50512;53.666;9.700;2023-09-30T03:45:42;27.88;;;6.18;;
64197;SDS011;50512;53.666;9.700;2023-09-30T03:48:08;23.77;;;5.57;;
64197;SDS011;50512;53.666;9.700;2023-09-30T03:50:35;21.92;;;5.57;;
64197;SDS011;50512;53.666;9.700;2023-09-30T03:53:03;24.63;;;5.93;;
64197;SDS011;50512;53.666;9.700;2023-09-30T03:55:32;21.42;;;5.55;;
64197;SDS011;50512;53.666;9.700;2023-09-30T03:58:01;31.15;;;5.85;;
64197;SDS011;50512;53.666;9.700;2023-09-30T04:00:28;29.23;;;6.28;;
64197;SDS011;50512;53.666;9.700;2023-09-30T04:02:55;26.88;;;6.28;;
64197;SDS011;50512;53.666;9.700;2023-09-30T04:05:24;25.00;;;5.78;;
64197;SDS011;50512;53.666;9.700;2023-09-30T04:07:53;20.95;;;5.18;;
64197;SDS011;50512;53.666;9.700;2023-09-30T04:10:20;23.05;;;5.88;;
64197;SDS011;50512;53.666;9.700;2023-09-30T04:12:47;19.27;;;5.88;;
64197;SDS011;50512;53.666;9.700;2023-09-30T04:15:15;24.40;;;5.10;;
64197;SDS011;50512;53.666;9.700;2023-09-30T04:17:41;26.02;;;5.43;;
64197;SDS011;50512;53.666;9.700;2023-09-30T04:20:08;34.97;;;6.72;;
64197;SDS011;50512;53.666;9.700;2023-09-30T04:22:35;23.60;;;5.50;;
64197;SDS011;50512;53.666;9.700;2023-09-30T04:25:02;18.35;;;5.63;;
64197;SDS011;50512;53.666;9.700;2023-09-30T04:27:31;22.33;;;6.03;;
64197;SDS011;50512;53.666;9.700;2023-09-30T04:29:57;26.58;;;7.07;;
64197;SDS011;50512;53.666;9.700;2023-09-30T04:32:25;24.33;;;5.80;;
64197;SDS011;50512;53.666;9.700;2023-09-30T04:34:52;20.38;;;5.72;;
64197;SDS011;50512;53.666;9.700;2023-09-30T04:37:19;32.42;;;7.30;;
64197;SDS011;50512;53.666;9.700;2023-09-30T04:39:46;23.08;;;5.38;;
64197;SDS011;50512;53.666;9.700;2023-09-30T04:42:12;29.33;;;6.75;;
64197;SDS011;50512;53.666;9.700;2023-09-30T04:44:39;28.13;;;6.03;;
64197;SDS011;50512;53.666;9.700;2023-09-30T04:47:06;24.17;;;5.55;;
64197;SDS011;50512;53.666;9.700;2023-09-30T04:49:34;28.48;;;7.10;;
64197;SDS011;50512;53.666;9.700;2023-09-30T04:52:01;26.23;;;6.00;;
64197;SDS011;50512;53.666;9.700;2023-09-30T04:54:27;31.58;;;6.70;;
64197;SDS011;50512;53.666;9.700;2023-09-30T04:56:54;21.35;;;6.13;;
64197;SDS011;50512;53.666;9.700;2023-09-30T04:59:21;19.27;;;5.80;;
64197;SDS011;50512;53.666;9.700;2023-09-30T05:01:50;22.20;;;5.40;;
64197;SDS011;50512;53.666;9.700;2023-09-30T05:04:16;24.00;;;5.05;;
64197;SDS011;50512;53.666;9.700;2023-09-30T05:06:44;19.77;;;5.82;;
64197;SDS011;50512;53.666;9.700;2023-09-30T05:09:10;24.00;;;6.50;;
64197;SDS011;50512;53.666;9.700;2023-09-30T05:11:37;20.92;;;6.00;;
64197;SDS011;50512;53.666;9.700;2023-09-30T05:14:04;21.02;;;6.60;;
64197;SDS011;50512;53.666;9.700;2023-09-30T05:16:31;19.55;;;6.50;;
64197;SDS011;50512;53.666;9.700;2023-09-30T05:18:57;27.15;;;6.70;;
64197;SDS011;50512;53.666;9.700;2023-09-30T05:21:24;25.98;;;6.85;;
64197;SDS011;50512;53.666;9.700;2023-09-30T05:23:51;21.17;;;5.38;;
64197;SDS011;50512;53.666;9.700;2023-09-30T05:26:18;23.95;;;7.50;;
64197;SDS011;50512;53.666;9.700;2023-09-30T05:28:44;18.95;;;5.93;;
64197;SDS011;50512;53.666;9.700;2023-09-30T05:31:11;22.48;;;6.03;;
64197;SDS011;50512;53.666;9.700;2023-09-30T05:33:37;30.20;;;6.22;;
64197;SDS011;50512;53.666;9.700;2023-09-30T05:36:04;17.98;;;4.97;;
64197;SDS011;50512;53.666;9.700;2023-09-30T05:38:30;22.55;;;6.63;;
64197;SDS011;50512;53.666;9.700;2023-09-30T05:40:58;20.90;;;5.75;;
64197;SDS011;50512;53.666;9.700;2023-09-30T05:43:26;20.40;;;5.07;;
64197;SDS011;50512;53.666;9.700;2023-09-30T05:45:53;27.00;;;6.38;;
64197;SDS011;50512;53.666;9.700;2023-09-30T05:48:20;28.08;;;6.47;;
64197;SDS011;50512;53.666;9.700;2023-09-30T05:50:46;27.13;;;8.48;;
64197;SDS011;50512;53.666;9.700;2023-09-30T05:53:13;20.95;;;6.07;;
64197;SDS011;50512;53.666;9.700;2023-09-30T05:55:40;32.35;;;6.95;;
64197;SDS011;50512;53.666;9.700;2023-09-30T05:58:09;18.85;;;5.78;;
64197;SDS011;50512;53.666;9.700;2023-09-30T06:00:38;28.15;;;5.75;;
64197;SDS011;50512;53.666;9.700;2023-09-30T06:03:07;29.80;;;6.47;;
64197;SDS011;50512;53.666;9.700;2023-09-30T06:05:33;30.92;;;6.70;;
64197;SDS011;50512;53.666;9.700;2023-09-30T06:08:01;22.75;;;5.72;;
64197;SDS011;50512;53.666;9.700;2023-09-30T06:10:29;27.40;;;6.10;;
64197;SDS011;50512;53.666;9.700;2023-09-30T06:12:56;19.13;;;5.78;;
64197;SDS011;50512;53.666;9.700;2023-09-30T06:15:25;19.85;;;5.65;;
64197;SDS011;50512;53.666;9.700;2023-09-30T06:17:51;24.55;;;6.88;;
64197;SDS011;50512;53.666;9.700;2023-09-30T06:20:18;27.08;;;6.15;;
64197;SDS011;50512;53.666;9.700;2023-09-30T06:22:47;25.02;;;6.40;;
64197;SDS011;50512;53.666;9.700;2023-09-30T06:25:14;30.23;;;5.75;;
64197;SDS011;50512;53.666;9.700;2023-09-30T06:27:41;20.02;;;5.68;;
64197;SDS011;50512;53.666;9.700;2023-09-30T06:30:08;20.90;;;5.68;;
64197;SDS011;50512;53.666;9.700;2023-09-30T06:32:37;35.30;;;6.00;;
64197;SDS011;50512;53.666;9.700;2023-09-30T06:35:04;16.17;;;4.93;;
64197;SDS011;50512;53.666;9.700;2023-09-30T06:37:31;13.32;;;4.50;;
64197;SDS011;50512;53.666;9.700;2023-09-30T06:39:57;22.23;;;5.20;;
64197;SDS011;50512;53.666;9.700;2023-09-30T06:42:25;25.58;;;7.07;;
64197;SDS011;50512;53.666;9.700;2023-09-30T06:44:52;23.50;;;5.70;;
64197;SDS011;50512;53.666;9.700;2023-09-30T06:47:19;21.00;;;5.28;;
64197;SDS011;50512;53.666;9.700;2023-09-30T06:49:47;21.17;;;6.22;;
64197;SDS011;50512;53.666;9.700;2023-09-30T06:52:13;24.08;;;5.57;;
64197;SDS011;50512;53.666;9.700;2023-09-30T06:54:40;20.48;;;5.43;;
64197;SDS011;50512;53.666;9.700;2023-09-30T06:57:06;20.55;;;6.30;;
64197;SDS011;50512;53.666;9.700;2023-09-30T06:59:34;22.88;;;4.97;;
64197;SDS011;50512;53.666;9.700;2023-09-30T07:02:01;21.83;;;5.15;;
64197;SDS011;50512;53.666;9.700;2023-09-30T07:04:28;23.20;;;5.13;;
64197;SDS011;50512;53.666;9.700;2023-09-30T07:06:57;23.27;;;5.13;;
64197;SDS011;50512;53.666;9.700;2023-09-30T07:09:24;20.83;;;4.93;;
64197;SDS011;50512;53.666;9.700;2023-09-30T07:11:51;18.77;;;5.45;;
64197;SDS011;50512;53.666;9.700;2023-09-30T07:14:18;16.00;;;4.45;;
64197;SDS011;50512;53.666;9.700;2023-09-30T07:16:44;19.35;;;4.85;;
64197;SDS011;50512;53.666;9.700;2023-09-30T07:19:11;12.23;;;4.00;;
64197;SDS011;50512;53.666;9.700;2023-09-30T07:21:37;18.65;;;4.68;;
64197;SDS011;50512;53.666;9.700;2023-09-30T07:24:05;17.17;;;4.00;;
64197;SDS011;50512;53.666;9.700;2023-09-30T07:26:32;13.80;;;4.53;;
64197;SDS011;50512;53.666;9.700;2023-09-30T07:28:59;11.23;;;3.75;;
64197;SDS011;50512;53.666;9.700;2023-09-30T07:31:25;17.77;;;3.47;;
64197;SDS011;50512;53.666;9.700;2023-09-30T07:33:52;14.73;;;3.78;;
64197;SDS011;50512;53.666;9.700;2023-09-30T07:36:18;19.10;;;4.05;;
64197;SDS011;50512;53.666;9.700;2023-09-30T07:38:45;15.35;;;3.60;;
64197;SDS011;50512;53.666;9.700;2023-09-30T07:41:13;18.75;;;4.32;;
64197;SDS011;50512;53.666;9.700;2023-09-30T07:43:40;15.98;;;3.85;;
64197;SDS011;50512;53.666;9.700;2023-09-30T07:46:06;21.35;;;3.80;;
64197;SDS011;50512;53.666;9.700;2023-09-30T07:48:33;17.20;;;3.95;;
64197;SDS011;50512;53.666;9.700;2023-09-30T07:51:00;14.13;;;3.78;;
64197;SDS011;50512;53.666;9.700;2023-09-30T07:53:26;11.45;;;3.35;;
64197;SDS011;50512;53.666;9.700;2023-09-30T07:55:53;18.70;;;3.83;;
64197;SDS011;50512;53.666;9.700;2023-09-30T07:58:21;10.43;;;2.95;;
64197;SDS011;50512;53.666;9.700;2023-09-30T08:00:47;16.58;;;3.75;;
64197;SDS011;50512;53.666;9.700;2023-09-30T08:03:14;12.40;;;3.33;;
64197;SDS011;50512;53.666;9.700;2023-09-30T08:05:41;21.00;;;4.13;;
64197;SDS011;50512;53.666;9.700;2023-09-30T08:08:07;14.73;;;2.97;;
64197;SDS011;50512;53.666;9.700;2023-09-30T08:10:34;18.02;;;4.07;;
64197;SDS011;50512;53.666;9.700;2023-09-30T08:13:01;16.63;;;3.80;;
64197;SDS011;50512;53.666;9.700;2023-09-30T08:15:30;10.50;;;2.92;;
64197;SDS011;50512;53.666;9.700;2023-09-30T08:17:56;11.52;;;2.97;;
64197;SDS011;50512;53.666;9.700;2023-09-30T08:20:23;19.02;;;3.10;;
64197;SDS011;50512;53.666;9.700;2023-09-30T08:22:50;14.40;;;2.90;;
64197;SDS011;50512;53.666;9.700;2023-09-30T08:25:16;17.67;;;3.42;;
64197;SDS011;50512;53.666;9.700;2023-09-30T08:27:43;20.80;;;3.47;;
64197;SDS011;50512;53.666;9.700;2023-09-30T08:30:10;17.70;;;3.78;;
64197;SDS011;50512;53.666;9.700;2023-09-30T08:32:38;25.13;;;4.20;;
64197;SDS011;50512;53.666;9.700;2023-09-30T08:35:05;13.18;;;3.72;;
64197;SDS011;50512;53.666;9.700;2023-09-30T08:37:32;14.63;;;3.38;;
64197;SDS011;50512;53.666;9.700;2023-09-30T08:39:59;15.52;;;3.45;;
64197;SDS011;50512;53.666;9.700;2023-09-30T08:42:26;10.43;;;2.70;;
64197;SDS011;50512;53.666;9.700;2023-09-30T08:44:56;16.63;;;2.78;;
64197;SDS011;50512;53.666;9.700;2023-09-30T08:47:24;21.17;;;3.25;;
64197;SDS011;50512;53.666;9.700;2023-09-30T08:49:54;16.77;;;2.88;;
64197;SDS011;50512;53.666;9.700;2023-09-30T08:52:25;14.07;;;2.67;;
64197;SDS011;50512;53.666;9.700;2023-09-30T08:54:53;16.33;;;3.00;;
64197;SDS011;50512;53.666;9.700;2023-09-30T08:57:19;15.63;;;3.38;;
64197;SDS011;50512;53.666;9.700;2023-09-30T08:59:46;17.27;;;3.45;;
64197;SDS011;50512;53.666;9.700;2023-09-30T09:02:15;12.80;;;2.90;;
64197;SDS011;50512;53.666;9.700;2023-09-30T09:04:41;16.15;;;3.33;;
64197;SDS011;50512;53.666;9.700;2023-09-30T09:07:10;14.55;;;3.03;;
64197;SDS011;50512;53.666;9.700;2023-09-30T09:09:36;8.43;;;3.00;;
64197;SDS011;50512;53.666;9.700;2023-09-30T09:12:03;12.32;;;2.88;;
64197;SDS011;50512;53.666;9.700;2023-09-30T09:14:37;12.77;;;2.72;;
64197;SDS011;50512;53.666;9.700;2023-09-30T09:17:05;13.30;;;2.70;;
64197;SDS011;50512;53.666;9.700;2023-09-30T09:19:32;16.30;;;2.90;;
64197;SDS011;50512;53.666;9.700;2023-09-30T09:21:59;10.77;;;2.65;;
64197;SDS011;50512;53.666;9.700;2023-09-30T09:24:32;13.32;;;2.63;;
64197;SDS011;50512;53.666;9.700;2023-09-30T09:27:05;17.60;;;3.00;;
64197;SDS011;50512;53.666;9.700;2023-09-30T09:29:34;18.13;;;2.90;;
64197;SDS011;50512;53.666;9.700;2023-09-30T09:32:08;12.75;;;3.65;;
64197;SDS011;50512;53.666;9.700;2023-09-30T09:34:36;14.77;;;2.88;;
64197;SDS011;50512;53.666;9.700;2023-09-30T09:37:12;15.25;;;3.00;;
64197;SDS011;50512;53.666;9.700;2023-09-30T09:39:41;12.63;;;2.33;;
64197;SDS011;50512;53.666;9.700;2023-09-30T09:42:22;10.82;;;2.25;;
64197;SDS011;50512;53.666;9.700;2023-09-30T09:44:50;14.18;;;2.95;;
64197;SDS011;50512;53.666;9.700;2023-09-30T09:47:20;15.45;;;3.15;;
64197;SDS011;50512;53.666;9.700;2023-09-30T09:49:48;11.40;;;2.47;;
64197;SDS011;50512;53.666;9.700;2023-09-30T09:52:14;11.25;;;2.75;;
64197;SDS011;50512;53.666;9.700;2023-09-30T09:54:43;17.58;;;3.08;;
64197;SDS011;50512;53.666;9.700;2023-09-30T09:57:11;14.13;;;2.60;;
64197;SDS011;50512;53.666;9.700;2023-09-30T09:59:38;19.15;;;5.47;;
64197;SDS011;50512;53.666;9.700;2023-09-30T10:02:05;11.88;;;2.30;;
64197;SDS011;50512;53.666;9.700;2023-09-30T10:04:36;18.73;;;3.00;;
64197;SDS011;50512;53.666;9.700;2023-09-30T10:07:03;16.60;;;2.70;;
64197;SDS011;50512;53.666;9.700;2023-09-30T10:09:31;16.05;;;2.50;;
64197;SDS011;50512;53.666;9.700;2023-09-30T10:12:02;13.23;;;2.65;;
64197;SDS011;50512;53.666;9.700;2023-09-30T10:14:30;11.20;;;2.83;;
64197;SDS011;50512;53.666;9.700;2023-09-30T10:16:58;11.98;;;2.72;;
64197;SDS011;50512;53.666;9.700;2023-09-30T10:19:25;10.98;;;2.95;;
64197;SDS011;50512;53.666;9.700;2023-09-30T10:24:51;13.27;;;2.60;;
64197;SDS011;50512;53.666;9.700;2023-09-30T10:27:30;16.45;;;2.40;;
64197;SDS011;50512;53.666;9.700;2023-09-30T10:30:05;10.90;;;2.88;;
64197;SDS011;50512;53.666;9.700;2023-09-30T10:35:42;11.32;;;2.33;;
64197;SDS011;50512;53.666;9.700;2023-09-30T10:41:09;9.43;;;2.15;;
64197;SDS011;50512;53.666;9.700;2023-09-30T10:43:39;11.30;;;2.30;;
64197;SDS011;50512;53.666;9.700;2023-09-30T10:51:43;14.43;;;3.15;;
64197;SDS011;50512;53.666;9.700;2023-09-30T10:54:11;14.95;;;2.55;;
64197;SDS011;50512;53.666;9.700;2023-09-30T10:56:39;11.32;;;2.00;;
64197;SDS011;50512;53.666;9.700;2023-09-30T10:59:07;19.00;;;3.17;;
64197;SDS011;50512;53.666;9.700;2023-09-30T11:01:34;12.63;;;2.80;;
64197;SDS011;50512;53.666;9.700;2023-09-30T11:04:01;10.30;;;2.22;;
64197;SDS011;50512;53.666;9.700;2023-09-30T11:06:30;14.63;;;2.40;;
64197;SDS011;50512;53.666;9.700;2023-09-30T11:08:57;13.23;;;3.20;;
64197;SDS011;50512;53.666;9.700;2023-09-30T11:11:32;9.30;;;1.98;;
64197;SDS011;50512;53.666;9.700;2023-09-30T11:14:00;7.35;;;1.75;;
64197;SDS011;50512;53.666;9.700;2023-09-30T11:16:28;9.20;;;1.70;;
64197;SDS011;50512;53.666;9.700;2023-09-30T11:18:54;11.63;;;2.53;;
64197;SDS011;50512;53.666;9.700;2023-09-30T11:21:22;7.60;;;1.90;;
64197;SDS011;50512;53.666;9.700;2023-09-30T11:23:48;7.80;;;1.85;;
64197;SDS011;50512;53.666;9.700;2023-09-30T11:26:17;7.65;;;2.05;;
64197;SDS011;50512;53.666;9.700;2023-09-30T11:29:04;12.68;;;2.17;;
64197;SDS011;50512;53.666;9.700;2023-09-30T11:31:32;13.70;;;2.83;;
64197;SDS011;50512;53.666;9.700;2023-09-30T11:33:59;9.55;;;2.13;;
64197;SDS011;50512;53.666;9.700;2023-09-30T11:36:28;11.57;;;1.90;;
64197;SDS011;50512;53.666;9.700;2023-09-30T11:38:56;14.43;;;2.42;;
64197;SDS011;50512;53.666;9.700;2023-09-30T11:41:31;9.93;;;2.42;;
64197;SDS011;50512;53.666;9.700;2023-09-30T11:44:00;11.57;;;2.42;;
64197;SDS011;50512;53.666;9.700;2023-09-30T11:46:29;15.05;;;2.53;;
64197;SDS011;50512;53.666;9.700;2023-09-30T11:48:59;13.50;;;2.47;;
64197;SDS011;50512;53.666;9.700;2023-09-30T11:51:27;13.43;;;2.47;;
64197;SDS011;50512;53.666;9.700;2023-09-30T11:53:54;16.35;;;2.42;;
64197;SDS011;50512;53.666;9.700;2023-09-30T11:56:22;8.15;;;1.83;;
64197;SDS011;50512;53.666;9.700;2023-09-30T11:58:54;10.88;;;2.03;;
64197;SDS011;50512;53.666;9.700;2023-09-30T12:01:21;6.85;;;1.98;;
64197;SDS011;50512;53.666;9.700;2023-09-30T12:03:51;9.38;;;2.22;;
64197;SDS011;50512;53.666;9.700;2023-09-30T12:06:20;9.13;;;2.47;;
64197;SDS011;50512;53.666;9.700;2023-09-30T12:08:47;12.02;;;3.42;;
64197;SDS011;50512;53.666;9.700;2023-09-30T12:11:16;16.05;;;2.67;;
64197;SDS011;50512;53.666;9.700;2023-09-30T12:13:43;12.65;;;3.25;;
64197;SDS011;50512;53.666;9.700;2023-09-30T12:16:10;16.15;;;2.65;;
64197;SDS011;50512;53.666;9.700;2023-09-30T12:18:37;11.02;;;2.22;;
64197;SDS011;50512;53.666;9.700;2023-09-30T12:21:07;11.60;;;2.33;;
64197;SDS011;50512;53.666;9.700;2023-09-30T12:23:33;8.27;;;2.20;;
64197;SDS011;50512;53.666;9.700;2023-09-30T12:26:01;10.68;;;2.25;;
64197;SDS011;50512;53.666;9.700;2023-09-30T12:28:30;15.25;;;2.17;;
64197;SDS011;50512;53.666;9.700;2023-09-30T12:30:57;11.70;;;2.08;;
64197;SDS011;50512;53.666;9.700;2023-09-30T12:33:23;15.70;;;2.50;;
64197;SDS011;50512;53.666;9.700;2023-09-30T12:35:50;10.35;;;1.80;;
64197;SDS011;50512;53.666;9.700;2023-09-30T12:38:18;12.75;;;1.88;;
64197;SDS011;50512;53.666;9.700;2023-09-30T12:40:44;12.45;;;2.53;;
64197;SDS011;50512;53.666;9.700;2023-09-30T12:43:10;9.20;;;1.90;;
64197;SDS011;50512;53.666;9.700;2023-09-30T12:45:37;19.67;;;2.97;;
64197;SDS011;50512;53.666;9.700;2023-09-30T12:48:04;11.90;;;2.20;;
64197;SDS011;50512;53.666;9.700;2023-09-30T12:50:32;6.65;;;1.73;;
64197;SDS011;50512;53.666;9.700;2023-09-30T12:52:58;14.43;;;2.47;;
64197;SDS011;50512;53.666;9.700;2023-09-30T12:55:26;9.20;;;1.80;;
64197;SDS011;50512;53.666;9.700;2023-09-30T12:57:53;9.02;;;1.70;;
64197;SDS011;50512;53.666;9.700;2023-09-30T13:00:19;10.90;;;2.92;;
64197;SDS011;50512;53.666;9.700;2023-09-30T13:02:47;8.50;;;1.90;;
64197;SDS011;50512;53.666;9.700;2023-09-30T13:05:13;9.43;;;1.90;;
64197;SDS011;50512;53.666;9.700;2023-09-30T13:07:42;6.85;;;1.77;;
64197;SDS011;50512;53.666;9.700;2023-09-30T13:10:08;12.30;;;2.58;;
64197;SDS011;50512;53.666;9.700;2023-09-30T13:12:36;11.27;;;2.15;;
64197;SDS011;50512;53.666;9.700;2023-09-30T13:15:03;11.90;;;1.98;;
64197;SDS011;50512;53.666;9.700;2023-09-30T13:17:30;9.50;;;1.90;;
64197;SDS011;50512;53.666;9.700;2023-09-30T13:19:57;10.48;;;1.67;;
64197;SDS011;50512;53.666;9.700;2023-09-30T13:22:24;12.50;;;2.35;;
64197;SDS011;50512;53.666;9.700;2023-09-30T13:24:50;13.65;;;2.33;;
64197;SDS011;50512;53.666;9.700;2023-09-30T13:27:20;14.93;;;2.45;;
64197;SDS011;50512;53.666;9.700;2023-09-30T13:29:48;9.40;;;1.80;;
64197;SDS011;50512;53.666;9.700;2023-09-30T13:32:14;10.25;;;2.10;;
64197;SDS011;50512;53.666;9.700;2023-09-30T13:34:43;16.90;;;2.50;;
64197;SDS011;50512;53.666;9.700;2023-09-30T13:37:10;10.70;;;2.47;;
64197;SDS011;50512;53.666;9.700;2023-09-30T13:39:36;11.63;;;2.38;;
64197;SDS011;50512;53.666;9.700;2023-09-30T13:42:03;9.98;;;1.67;;
64197;SDS011;50512;53.666;9.700;2023-09-30T13:44:32;9.20;;;2.00;;
64197;SDS011;50512;53.666;9.700;2023-09-30T13:46:59;11.43;;;1.98;;
64197;SDS011;50512;53.666;9.700;2023-09-30T13:49:26;10.30;;;1.95;;
64197;SDS011;50512;53.666;9.700;2023-09-30T13:51:53;8.45;;;1.90;;
64197;SDS011;50512;53.666;9.700;2023-09-30T13:54:19;9.88;;;2.17;;
64197;SDS011;50512;53.666;9.700;2023-09-30T13:56:45;12.57;;;2.15;;
64197;SDS011;50512;53.666;9.700;2023-09-30T13:59:12;12.00;;;2.22;;
64197;SDS011;50512;53.666;9.700;2023-09-30T14:01:38;4.80;;;1.67;;
64197;SDS011;50512;53.666;9.700;2023-09-30T14:04:07;11.93;;;2.28;;
64197;SDS011;50512;53.666;9.700;2023-09-30T14:06:34;9.93;;;1.95;;
64197;SDS011;50512;53.666;9.700;2023-09-30T14:09:01;14.10;;;2.53;;
64197;SDS011;50512;53.666;9.700;2023-09-30T14:11:28;9.18;;;1.85;;
64197;SDS011;50512;53.666;9.700;2023-09-30T14:13:55;10.18;;;1.92;;
64197;SDS011;50512;53.666;9.700;2023-09-30T14:16:22;12.20;;;2.22;;
64197;SDS011;50512;53.666;9.700;2023-09-30T14:18:48;10.65;;;2.28;;
64197;SDS011;50512;53.666;9.700;2023-09-30T14:21:16;8.68;;;1.83;;
64197;SDS011;50512;53.666;9.700;2023-09-30T14:23:43;9.23;;;1.85;;
64197;SDS011;50512;53.666;9.700;2023-09-30T14:26:10;14.45;;;2.00;;
64197;SDS011;50512;53.666;9.700;2023-09-30T14:28:36;14.18;;;3.08;;
64197;SDS011;50512;53.666;9.700;2023-09-30T14:31:03;10.20;;;2.05;;
64197;SDS011;50512;53.666;9.700;2023-09-30T14:33:30;7.60;;;2.30;;
64197;SDS011;50512;53.666;9.700;2023-09-30T14:35:56;16.38;;;3.42;;
64197;SDS011;50512;53.666;9.700;2023-09-30T14:38:24;10.30;;;2.20;;
64197;SDS011;50512;53.666;9.700;2023-09-30T14:40:51;10.60;;;2.35;;
64197;SDS011;50512;53.666;9.700;2023-09-30T14:43:18;8.38;;;2.20;;
64197;SDS011;50512;53.666;9.700;2023-09-30T14:45:45;11.98;;;2.35;;
64197;SDS011;50512;53.666;9.700;2023-09-30T14:48:11;8.88;;;1.92;;
64197;SDS011;50512;53.666;9.700;2023-09-30T14:50:47;8.32;;;2.05;;
64197;SDS011;50512;53.666;9.700;2023-09-30T14:53:17;10.90;;;2.60;;